10°C
Woerden, The Nederlands
Taal:  Nederlands
Updated18/10/2021 03:30 
 

Nearby METAR Reports

EHAM - Amsterdam/Schiph, Netherlands
Distance from station: N 27km
Updated: 18/10/2021 03:25
Helder
Helder
 Wind van Z
Wind: Z 15 km/h
Temperatuur: 11°C
Dauwpunt: 8°C
Vochtigheid: 82%
Barometer: 1021 hPa
Overzicht: Helder
Visibility: greater than 10 km
2021/10/18 01:25 EHAM 180125Z 18008KT CAVOK 11/08 Q1021 NOSIG
EHRD - Rotterdam Airpor, Netherlands
Distance from station: WZW 30km
Updated: 18/10/2021 03:25
Gedeeltelijk bewolkt
Gedeeltelijk bewolkt
 Wind van Z
Wind: Z 13 km/h
Temperatuur: 12°C
Dauwpunt: 8°C
Vochtigheid: 77%
Barometer: 1021 hPa
Clouds: Gedeeltelijk bewolkt
Visibility: 10 km
2021/10/18 01:25 EHRD 180125Z AUTO 19007KT 9999 NSC 12/08 Q1021 NOSIG
 
EHGR - Gilze-Rijen Rnla, Netherlands
Distance from station: Z 57km
Updated: 18/10/2021 03:25
Few Clouds
Few Clouds
 Wind van Z
Wind: Z 7 km/h
Temperatuur: 7°C
Hitte Index: 6°C
Dauwpunt: 6°C
Vochtigheid: 93%
Barometer: 1021 hPa
Clouds: Few Clouds
Visibility: 10 km
Cloud details: Few Clouds 2957 m
2021/10/18 01:25 EHGR 180125Z AUTO 19004KT 9999 FEW097 07/06 Q1021 BLU
EHDL - Deelen Rnlafb, Netherlands
Distance from station: O 71km
Updated: 18/10/2021 03:25
Zwaar bewolkt
Zwaar bewolkt
 Wind van ZZO
Wind: ZZO 4 km/h
Temperatuur: 9°C
Dauwpunt: 7°C
Vochtigheid: 87%
Barometer: 1022 hPa
Clouds: Zwaar bewolkt
Visibility: 10 km
Cloud details: Meestal bewolkt 2377 m
Zwaar bewolkt 2865 m
2021/10/18 01:25 EHDL 180125Z AUTO 16002KT 9999 BKN078 OVC094 09/07 Q1022 BLU
 
EHVK - Volkel Rnlafb, Netherlands
Distance from station: ZO 77km
Updated: 18/10/2021 03:25
Zwaar bewolkt
Zwaar bewolkt
 Wind van varies
Wind: varies 4 km/h
Temperatuur: 9°C
Dauwpunt: 7°C
Vochtigheid: 87%
Barometer: 1022 hPa
Clouds: Zwaar bewolkt
Visibility: 10 km
Cloud details: Few Clouds 2012 m
Gedeeltelijk bewolkt 2469 m
Zwaar bewolkt 2621 m
2021/10/18 01:25 EHVK 180125Z AUTO VRB02KT 9999 FEW066 SCT081 OVC086 09/07 Q1022 BLU
EHWO - Woensdrecht Rnla, Netherlands
Distance from station: ZZW 78km
Updated: 18/10/2021 03:25
Zwaar bewolkt
Zwaar bewolkt
 Wind van Z
Wind: Z 7 km/h
Temperatuur: 9°C
Hitte Index: 8°C
Dauwpunt: 7°C
Vochtigheid: 87%
Barometer: 1021 hPa
Clouds: Zwaar bewolkt
Visibility: 10 km
Cloud details: Zwaar bewolkt 11887 m
2021/10/18 01:25 EHWO 180125Z AUTO 18004KT 9999 OVC390 09/07 Q1021 BLU
 
EHEH - Eindhoven Rnlafb, Netherlands
Distance from station: ZZO 81km
Updated: 18/10/2021 03:25
Zwaar bewolkt
Zwaar bewolkt
 Wind van ZZO
Wind: ZZO 2 km/h
Temperatuur: 7°C
Dauwpunt: 6°C
Vochtigheid: 93%
Barometer: 1022 hPa
Clouds: Zwaar bewolkt
Visibility: 10 km
Cloud details: Few Clouds 1951 m
Zwaar bewolkt 2469 m
2021/10/18 01:25 EHEH 180125Z AUTO 16001KT 9999 FEW064 OVC081 07/06 Q1022 BLU
EHSC - Goeree Le Sea, Netherlands
Distance from station: W 81km
Updated: 18/10/2021 03:25

 Wind van ZZW
Wind: ZZW 31 km/h
Temperatuur: 13°C
Dauwpunt: 9°C
Vochtigheid: 77%
Barometer: 1020 hPa
Visibility: 10 km
2021/10/18 01:25 EHSC 180125Z AUTO 20017KT 9999 ///////// 13/09 Q1020 W16/H9